createdAt,value
2018-11-02T00:04:14.709Z,18.90
2018-11-02T00:12:36.709Z,17.27
2018-11-02T00:20:58.107Z,15.90
2018-11-02T00:29:19.486Z,16.40
2018-11-02T00:37:40.926Z,17.83
2018-11-02T00:46:02.300Z,24.80
2018-11-02T00:54:23.741Z,20.50
2018-11-02T01:11:13.325Z,16.03
2018-11-02T01:19:34.690Z,16.10
2018-11-02T01:27:56.114Z,14.80
2018-11-02T01:36:17.486Z,12.73
2018-11-02T01:44:38.846Z,14.63
2018-11-02T01:53:00.197Z,13.43
2018-11-02T02:01:21.602Z,13.53
2018-11-02T02:09:42.994Z,13.30
2018-11-02T02:18:04.370Z,12.10
2018-11-02T02:26:25.737Z,11.43
2018-11-02T02:34:47.137Z,12.07
2018-11-02T02:43:08.494Z,11.37
2018-11-02T02:51:29.870Z,10.93
2018-11-02T02:59:51.242Z,10.40
2018-11-02T03:08:12.606Z,9.30
2018-11-02T03:16:33.995Z,9.60
2018-11-02T03:24:55.381Z,10.47
2018-11-02T03:33:16.741Z,10.13
2018-11-02T03:41:38.118Z,9.90
2018-11-02T03:49:59.506Z,9.93
2018-11-02T03:58:20.897Z,9.77
2018-11-02T04:06:42.250Z,10.00
2018-11-02T04:15:03.639Z,9.13
2018-11-02T04:23:25.029Z,8.90
2018-11-02T04:31:46.367Z,8.63
2018-11-02T04:40:08.107Z,8.90
2018-11-02T04:48:29.466Z,10.20
2018-11-02T04:56:50.833Z,9.27
2018-11-02T05:05:12.194Z,9.10
2018-11-02T05:13:33.574Z,9.40
2018-11-02T05:21:54.969Z,9.77
2018-11-02T05:30:16.331Z,9.70
2018-11-02T05:38:37.800Z,9.10
2018-11-02T05:46:59.176Z,9.23
2018-11-02T05:55:20.507Z,9.37
2018-11-02T06:03:41.878Z,9.40
2018-11-02T06:12:03.230Z,9.40
2018-11-02T06:20:24.582Z,9.30
2018-11-02T06:28:45.936Z,9.73
2018-11-02T06:37:07.300Z,9.70
2018-11-02T06:45:28.669Z,9.43
2018-11-02T06:53:50.036Z,8.97
2018-11-02T07:02:11.528Z,7.70
2018-11-02T07:10:32.906Z,7.80
2018-11-02T07:18:54.278Z,8.73
2018-11-02T07:27:15.642Z,8.67
2018-11-02T07:35:37.041Z,9.57
2018-11-02T07:43:58.374Z,8.70
2018-11-02T07:52:19.763Z,9.23
2018-11-02T08:00:41.149Z,9.27
2018-11-02T08:09:02.854Z,8.63
2018-11-02T08:17:24.349Z,8.87
2018-11-02T08:25:45.715Z,7.80
2018-11-02T08:34:07.075Z,9.00
2018-11-02T08:42:28.423Z,8.73
2018-11-02T08:50:49.779Z,9.07
2018-11-02T08:59:11.166Z,8.77
2018-11-02T09:07:32.541Z,10.30
2018-11-02T09:15:53.896Z,8.47
2018-11-02T09:24:15.361Z,10.00
2018-11-02T09:32:36.764Z,9.00
2018-11-02T09:40:58.119Z,9.77
2018-11-02T09:49:19.562Z,7.00
2018-11-02T09:57:41.435Z,8.30
2018-11-02T10:06:02.855Z,8.47
2018-11-02T10:14:24.447Z,6.93
2018-11-02T10:22:45.920Z,6.50
2018-11-02T10:31:07.345Z,5.70
2018-11-02T10:39:28.823Z,6.03
2018-11-02T10:47:50.185Z,5.23
2018-11-02T10:56:11.550Z,5.10
2018-11-02T11:04:32.921Z,6.67
2018-11-02T11:12:54.475Z,6.00
2018-11-02T11:21:15.767Z,6.00
2018-11-02T11:29:37.117Z,5.53
2018-11-02T11:37:58.568Z,6.80
2018-11-02T11:46:19.899Z,5.40
2018-11-02T11:54:41.378Z,4.60
2018-11-02T12:03:02.672Z,3.43
2018-11-02T12:11:24.046Z,4.43
2018-11-02T12:19:45.420Z,3.43
2018-11-02T12:28:06.810Z,3.97
2018-11-02T12:36:28.394Z,4.23
2018-11-02T12:44:49.815Z,3.80
2018-11-02T12:53:11.298Z,3.67
2018-11-02T13:01:32.747Z,3.50
2018-11-02T13:09:54.122Z,3.40
2018-11-02T13:18:16.732Z,3.80
2018-11-02T13:26:38.045Z,3.30
2018-11-02T13:34:59.403Z,3.40
2018-11-02T13:43:21.041Z,2.80
2018-11-02T13:51:42.226Z,2.90
2018-11-02T14:00:03.742Z,3.50
2018-11-02T14:08:25.097Z,3.60
2018-11-02T14:16:46.482Z,3.20
2018-11-02T14:25:08.550Z,3.77
2018-11-02T14:33:30.019Z,3.30
2018-11-02T14:41:51.395Z,3.50
2018-11-02T14:50:12.931Z,3.47
2018-11-02T14:58:34.354Z,3.10
2018-11-02T15:06:55.722Z,3.47
2018-11-02T15:15:17.157Z,3.60
2018-11-02T15:23:38.657Z,3.77
2018-11-02T15:32:00.084Z,3.70
2018-11-02T15:40:21.437Z,4.10
2018-11-02T15:48:43.121Z,4.73
2018-11-02T15:57:04.499Z,16.93
2018-11-02T16:05:25.882Z,6.47
2018-11-02T16:13:47.406Z,5.73
2018-11-02T16:22:08.767Z,5.40
2018-11-02T16:30:30.147Z,6.77
2018-11-02T16:38:51.533Z,6.10
2018-11-02T16:47:12.987Z,5.60
2018-11-02T16:55:34.516Z,10.87
2018-11-02T17:03:55.915Z,9.47
2018-11-02T17:12:17.351Z,10.13
2018-11-02T17:20:38.738Z,7.07
2018-11-02T17:29:00.376Z,6.13
2018-11-02T17:37:21.871Z,9.80
2018-11-02T17:45:43.224Z,9.13
2018-11-02T17:54:04.639Z,11.50
2018-11-02T18:02:26.243Z,15.57
2018-11-02T18:10:47.757Z,9.43
2018-11-02T18:19:09.234Z,18.87
2018-11-02T18:27:30.676Z,18.70
2018-11-02T18:35:52.113Z,15.87
2018-11-02T18:44:13.622Z,14.23
2018-11-02T18:52:34.998Z,12.93
2018-11-02T19:00:56.403Z,8.50
2018-11-02T19:09:18.206Z,10.57
2018-11-02T19:17:40.159Z,8.30
2018-11-02T19:26:01.585Z,10.03
2018-11-02T19:34:23.159Z,13.10
2018-11-02T19:42:44.526Z,12.93
2018-11-02T19:51:06.194Z,11.63
2018-11-02T19:59:27.641Z,9.80
2018-11-02T20:07:49.022Z,8.10
2018-11-02T20:16:10.422Z,8.50
2018-11-02T20:24:31.975Z,11.27
2018-11-02T20:32:53.266Z,12.90
2018-11-02T20:41:14.666Z,11.60
2018-11-02T20:49:36.066Z,12.00
2018-11-02T20:57:57.447Z,16.07
2018-11-02T21:06:18.817Z,12.70
2018-11-02T21:14:40.512Z,13.17
2018-11-02T21:23:01.600Z,11.43
2018-11-02T21:31:22.975Z,11.50
2018-11-02T21:39:44.341Z,14.80
2018-11-02T21:48:05.715Z,14.53
2018-11-02T21:56:27.969Z,15.40
2018-11-02T22:04:49.394Z,15.40
2018-11-02T22:13:10.830Z,14.73
2018-11-02T22:21:32.290Z,16.20
2018-11-02T22:29:53.746Z,12.37
2018-11-02T22:38:15.197Z,11.97
2018-11-02T22:46:36.893Z,12.00
2018-11-02T22:54:58.321Z,11.73
2018-11-02T23:03:19.778Z,9.00
2018-11-02T23:11:41.175Z,8.27
2018-11-02T23:20:02.594Z,9.90
2018-11-02T23:28:24.048Z,12.83
2018-11-02T23:36:45.423Z,14.13
2018-11-02T23:45:07.394Z,10.00
2018-11-02T23:53:28.778Z,10.17
